Time;durP1;ratioP1;P1;durP2;ratioP2;P2;SDS_P1;SDS_P2;PMS_P1;PMS_P2;Temp;Humidity;BMP_temperature;BMP_pressure;BME280_temperature;BME280_humidity;BME280_pressure;Samples;Min_cycle;Max_cycle;Signal;HPM_P1;HPM_P2
2023/03/23 00:01:31;;;;;;;113.25;48.15;;;8.90;99.90;;;;;;5053851;28;20079;-78
2023/03/23 00:03:58;;;;;;;94.30;37.75;;;8.90;99.90;;;;;;5053146;28;20123;-80
2023/03/23 00:06:26;;;;;;;93.15;35.92;;;8.90;99.90;;;;;;5053584;28;20029;-77
2023/03/23 00:08:59;;;;;;;115.45;45.78;;;8.80;99.90;;;;;;5052147;28;20115;-77
2023/03/23 00:11:28;;;;;;;73.47;32.30;;;8.80;99.90;;;;;;5053115;28;20100;-77
2023/03/23 00:13:57;;;;;;;83.88;35.58;;;8.70;99.90;;;;;;5056252;28;20064;-77
2023/03/23 00:16:31;;;;;;;75.97;32.25;;;8.70;99.90;;;;;;5056496;28;20043;-77
2023/03/23 00:19:03;;;;;;;80.20;33.65;;;8.70;99.90;;;;;;5056689;28;20029;-79
2023/03/23 00:21:41;;;;;;;89.00;37.55;;;8.60;99.90;;;;;;5050726;28;20099;-76
2023/03/23 00:24:09;;;;;;;86.82;36.35;;;8.60;99.90;;;;;;5056405;28;20029;-77
2023/03/23 00:26:39;;;;;;;83.72;33.60;;;8.60;99.90;;;;;;5055204;28;20503;-76
2023/03/23 00:29:07;;;;;;;150.23;49.88;;;8.50;99.90;;;;;;5056009;28;20032;-77
2023/03/23 00:31:35;;;;;;;98.40;37.78;;;8.60;99.90;;;;;;5056102;28;20025;-77
2023/03/23 00:34:03;;;;;;;186.10;59.60;;;8.50;99.90;;;;;;5055540;28;20029;-77
2023/03/23 00:36:31;;;;;;;166.27;55.72;;;8.50;99.90;;;;;;5056832;28;20025;-77
2023/03/23 00:38:59;;;;;;;159.70;51.63;;;8.50;99.90;;;;;;5056007;28;20112;-77
2023/03/23 00:41:26;;;;;;;137.48;47.50;;;8.50;99.90;;;;;;5055870;28;20025;-79
2023/03/23 00:43:53;;;;;;;78.32;30.90;;;8.50;99.90;;;;;;5055002;28;20502;-77
2023/03/23 00:46:20;;;;;;;72.00;27.58;;;8.40;99.90;;;;;;5056067;28;20029;-77
2023/03/23 00:48:46;;;;;;;90.72;36.42;;;8.40;99.90;;;;;;5056079;28;20066;-76
2023/03/23 00:51:12;;;;;;;65.50;27.70;;;8.30;99.90;;;;;;5055878;28;20112;-77
2023/03/23 00:53:41;;;;;;;73.18;31.83;;;8.30;99.90;;;;;;5056392;28;20079;-77
2023/03/23 00:56:08;;;;;;;79.18;31.48;;;8.20;99.90;;;;;;5056541;28;20059;-78
2023/03/23 00:58:34;;;;;;;65.70;28.83;;;8.20;99.90;;;;;;5055853;28;20021;-77
2023/03/23 01:01:00;;;;;;;65.47;26.55;;;8.20;99.90;;;;;;5056060;28;20108;-77
2023/03/23 01:03:28;;;;;;;44.92;18.27;;;8.10;99.90;;;;;;5054701;28;20108;-77
2023/03/23 01:05:55;;;;;;;49.30;18.85;;;8.10;99.90;;;;;;5054479;28;20107;-78
2023/03/23 01:08:22;;;;;;;60.40;23.48;;;8.10;99.90;;;;;;5055887;28;20079;-78
2023/03/23 01:10:48;;;;;;;61.13;24.33;;;8.00;99.90;;;;;;5056144;28;20036;-77
2023/03/23 01:13:15;;;;;;;81.70;29.80;;;8.00;99.90;;;;;;5055425;28;20025;-77
2023/03/23 01:15:42;;;;;;;76.35;29.70;;;8.00;99.90;;;;;;5054367;28;20024;-80
2023/03/23 01:18:09;;;;;;;81.43;29.48;;;8.00;99.90;;;;;;5055442;28;20036;-77
2023/03/23 01:20:36;;;;;;;67.55;26.55;;;7.90;99.90;;;;;;5055539;28;20467;-78
2023/03/23 01:23:02;;;;;;;72.60;27.52;;;7.90;99.90;;;;;;5047532;28;20045;-78
2023/03/23 01:25:30;;;;;;;59.40;24.98;;;7.90;99.90;;;;;;5054631;28;20533;-77
2023/03/23 01:27:57;;;;;;;47.78;18.88;;;7.90;99.90;;;;;;5055087;28;20071;-78
2023/03/23 01:30:23;;;;;;;40.85;20.50;;;7.80;99.90;;;;;;5053980;28;20044;-79
2023/03/23 01:32:50;;;;;;;35.05;16.08;;;7.90;99.90;;;;;;5054044;28;20517;-80
2023/03/23 01:35:16;;;;;;;30.27;13.10;;;7.80;99.90;;;;;;5054683;28;20483;-79
2023/03/23 01:37:42;;;;;;;40.28;17.45;;;7.80;99.90;;;;;;5054752;28;20029;-79
2023/03/23 01:40:09;;;;;;;33.15;16.63;;;7.70;99.90;;;;;;5055352;28;20036;-79
2023/03/23 01:42:37;;;;;;;24.13;12.07;;;7.70;99.90;;;;;;5055087;28;20033;-77
2023/03/23 01:45:38;;;;;;;32.47;13.75;;;7.60;99.90;;;;;;5053799;28;20036;-77
2023/03/23 01:48:17;;;;;;;28.45;13.60;;;7.60;99.90;;;;;;5032533;28;20095;-78
2023/03/23 01:50:55;;;;;;;55.40;21.35;;;7.60;99.90;;;;;;5032561;28;20044;-77
2023/03/23 01:53:24;;;;;;;24.08;12.13;;;7.50;99.90;;;;;;5032684;28;20036;-78
2023/03/23 01:55:53;;;;;;;38.10;17.38;;;7.40;99.90;;;;;;5032377;28;20044;-77
2023/03/23 01:58:25;;;;;;;50.22;21.60;;;7.40;99.90;;;;;;5029770;28;20492;-76
2023/03/23 02:00:53;;;;;;;54.10;22.67;;;7.40;99.90;;;;;;5025787;28;20032;-79
2023/03/23 02:03:20;;;;;;;60.60;24.15;;;7.50;99.90;;;;;;5032552;28;20057;-78
2023/03/23 02:05:46;;;;;;;26.45;12.63;;;7.50;99.90;;;;;;5032248;28;20554;-76
2023/03/23 02:08:13;;;;;;;24.45;10.77;;;7.50;99.90;;;;;;5032129;28;20033;-78
2023/03/23 02:10:39;;;;;;;23.67;10.45;;;7.50;99.90;;;;;;5032220;28;20540;-76
2023/03/23 02:13:08;;;;;;;21.05;10.27;;;7.50;99.90;;;;;;5032198;28;20037;-78
2023/03/23 02:15:43;;;;;;;30.63;12.73;;;7.40;99.90;;;;;;5031947;28;20091;-77
2023/03/23 02:18:31;;;;;;;25.55;12.15;;;7.30;99.90;;;;;;5032320;28;20037;-77
2023/03/23 02:21:10;;;;;;;47.50;21.67;;;7.40;99.90;;;;;;5032293;28;20547;-78
2023/03/23 02:23:57;;;;;;;44.70;21.55;;;7.30;99.90;;;;;;5053954;28;20502;-77
2023/03/23 02:26:41;;;;;;;46.53;19.40;;;7.30;99.90;;;;;;5054681;28;20104;-77
2023/03/23 02:29:11;;;;;;;42.90;16.70;;;7.30;99.90;;;;;;5054275;28;20021;-78
2023/03/23 02:31:47;;;;;;;56.45;21.17;;;7.20;99.90;;;;;;5052700;28;20033;-77
2023/03/23 02:34:20;;;;;;;66.32;23.30;;;7.20;99.90;;;;;;5054276;28;20419;-78
2023/03/23 02:36:54;;;;;;;52.83;19.55;;;7.20;99.90;;;;;;5053615;28;20444;-78
2023/03/23 02:39:30;;;;;;;33.95;14.75;;;7.20;99.90;;;;;;5054296;28;20025;-78
2023/03/23 02:42:06;;;;;;;18.90;9.30;;;7.20;99.90;;;;;;5053965;28;20025;-78
2023/03/23 02:44:33;;;;;;;15.63;8.82;;;7.10;99.90;;;;;;5053936;28;20059;-77
2023/03/23 02:47:03;;;;;;;17.05;9.00;;;7.10;99.90;;;;;;5054144;28;20040;-78
2023/03/23 02:49:32;;;;;;;15.90;9.65;;;7.10;99.90;;;;;;5054403;28;20020;-79
2023/03/23 02:52:12;;;;;;;27.65;12.50;;;7.10;99.90;;;;;;5053917;28;20025;-77
2023/03/23 02:54:38;;;;;;;50.60;21.15;;;7.10;99.90;;;;;;5054979;28;20040;-77
2023/03/23 02:57:05;;;;;;;45.25;20.10;;;7.20;99.90;;;;;;5053899;28;20047;-77
2023/03/23 02:59:32;;;;;;;39.63;18.95;;;7.10;99.90;;;;;;5054075;28;20463;-78
2023/03/23 03:02:06;;;;;;;34.28;15.65;;;7.10;99.90;;;;;;5054346;28;20021;-77
2023/03/23 03:04:33;;;;;;;36.38;16.23;;;7.10;99.90;;;;;;5054176;28;20025;-77
2023/03/23 03:07:08;;;;;;;39.63;16.67;;;7.10;99.90;;;;;;5054235;28;20029;-79
2023/03/23 03:09:46;;;;;;;37.00;16.60;;;7.10;99.90;;;;;;5054608;28;20025;-78
2023/03/23 03:12:23;;;;;;;40.97;16.63;;;7.10;99.90;;;;;;5053658;28;20477;-78
2023/03/23 03:15:20;;;;;;;29.48;14.85;;;7.10;99.90;;;;;;5053148;28;20425;-77
2023/03/23 03:18:03;;;;;;;30.23;14.23;;;7.10;99.90;;;;;;5044488;28;20552;-76
2023/03/23 03:20:31;;;;;;;32.85;13.52;;;7.10;99.90;;;;;;5054173;28;20025;-78
2023/03/23 03:22:58;;;;;;;32.20;12.32;;;7.10;99.90;;;;;;5053627;28;20425;-77
2023/03/23 03:25:27;;;;;;;28.55;11.57;;;7.00;99.90;;;;;;5051554;28;20051;-77
2023/03/23 03:27:54;;;;;;;72.38;24.80;;;7.00;99.90;;;;;;5053245;28;20400;-78
2023/03/23 03:30:26;;;;;;;39.03;15.32;;;7.00;99.90;;;;;;5051948;28;20036;-77
2023/03/23 03:32:56;;;;;;;27.02;11.70;;;6.90;99.90;;;;;;5053235;28;20027;-76
2023/03/23 03:35:23;;;;;;;34.65;11.45;;;6.90;99.90;;;;;;5052724;28;20372;-78
2023/03/23 03:37:50;;;;;;;28.27;10.73;;;6.80;99.90;;;;;;5053755;28;20033;-77
2023/03/23 03:40:18;;;;;;;34.50;10.55;;;6.90;99.90;;;;;;5053116;28;20033;-77
2023/03/23 03:42:45;;;;;;;33.22;10.73;;;6.80;99.90;;;;;;5053553;28;20029;-78
2023/03/23 03:45:17;;;;;;;26.90;10.00;;;6.80;99.90;;;;;;5051846;28;20052;-78
2023/03/23 03:47:43;;;;;;;23.15;10.75;;;6.80;99.90;;;;;;5052253;28;20475;-78
2023/03/23 03:50:09;;;;;;;40.05;17.33;;;6.70;99.90;;;;;;5052651;28;20113;-76
2023/03/23 03:52:36;;;;;;;88.18;29.25;;;6.70;99.90;;;;;;5052924;28;20025;-77
2023/03/23 03:55:02;;;;;;;76.50;29.10;;;6.70;99.90;;;;;;5052857;28;20025;-77
2023/03/23 03:57:27;;;;;;;56.20;22.85;;;6.70;99.90;;;;;;5052812;28;20025;-77
2023/03/23 03:59:53;;;;;;;56.55;20.30;;;6.60;99.90;;;;;;5052506;28;20025;-78
2023/03/23 04:02:19;;;;;;;38.35;16.58;;;6.70;99.90;;;;;;5051821;28;20061;-76
2023/03/23 04:04:49;;;;;;;37.22;14.07;;;6.70;99.90;;;;;;5052765;28;20127;-77
2023/03/23 04:07:16;;;;;;;35.58;14.80;;;6.70;99.90;;;;;;5052597;28;20045;-76
2023/03/23 04:09:43;;;;;;;43.03;17.10;;;6.70;99.90;;;;;;5051700;28;20029;-78
2023/03/23 04:12:09;;;;;;;49.08;16.95;;;6.70;99.90;;;;;;5052979;28;20114;-77
2023/03/23 04:14:35;;;;;;;42.90;17.63;;;6.60;99.90;;;;;;5052848;28;20072;-78
2023/03/23 04:17:01;;;;;;;38.72;16.63;;;6.70;99.90;;;;;;5051210;28;20486;-78
2023/03/23 04:19:28;;;;;;;41.90;17.13;;;6.70;99.90;;;;;;5051739;28;20029;-78
2023/03/23 04:21:54;;;;;;;46.63;19.27;;;6.70;99.90;;;;;;5052215;28;20037;-77
2023/03/23 04:24:23;;;;;;;41.55;17.50;;;6.70;99.90;;;;;;5052494;28;20056;-77
2023/03/23 04:26:51;;;;;;;35.53;16.38;;;6.60;99.90;;;;;;5051741;28;20033;-78
2023/03/23 04:29:17;;;;;;;40.15;17.73;;;6.70;99.90;;;;;;5052261;28;20056;-76
2023/03/23 04:31:45;;;;;;;44.47;17.75;;;6.60;99.90;;;;;;5051516;28;20108;-77
2023/03/23 04:34:14;;;;;;;55.38;23.02;;;6.60;99.90;;;;;;5052325;28;20152;-78
2023/03/23 04:36:40;;;;;;;48.28;20.40;;;6.60;99.90;;;;;;5051441;28;20116;-77
2023/03/23 04:39:09;;;;;;;48.83;19.88;;;6.60;99.90;;;;;;5052585;28;20104;-76
2023/03/23 04:41:36;;;;;;;40.03;16.85;;;6.60;99.90;;;;;;5051112;28;20135;-77
2023/03/23 04:44:02;;;;;;;39.88;17.77;;;6.60;99.90;;;;;;5051566;28;20033;-77
2023/03/23 04:46:31;;;;;;;47.25;17.58;;;6.50;99.90;;;;;;5052661;28;20033;-77
2023/03/23 04:49:00;;;;;;;69.15;24.60;;;6.50;99.90;;;;;;5052029;28;20155;-77
2023/03/23 04:51:28;;;;;;;110.50;37.38;;;6.50;99.90;;;;;;5052681;28;20025;-77
2023/03/23 04:53:54;;;;;;;89.80;31.00;;;6.50;99.90;;;;;;5052166;28;20025;-77
2023/03/23 04:56:20;;;;;;;71.85;29.48;;;6.50;99.90;;;;;;5051111;28;20405;-77
2023/03/23 04:58:46;;;;;;;88.22;34.13;;;6.50;99.90;;;;;;5052901;28;20486;-78
2023/03/23 05:01:17;;;;;;;50.38;20.15;;;6.60;99.90;;;;;;5054468;28;20057;-78
2023/03/23 05:03:44;;;;;;;29.57;14.63;;;6.60;99.90;;;;;;5054782;28;20052;-76
2023/03/23 05:06:10;;;;;;;29.40;14.05;;;6.60;99.90;;;;;;5055978;28;20472;-78
2023/03/23 05:08:38;;;;;;;27.90;10.77;;;6.60;99.90;;;;;;5055551;28;20032;-77
2023/03/23 05:11:05;;;;;;;20.98;11.07;;;6.60;99.90;;;;;;5055812;28;20466;-78
2023/03/23 05:13:32;;;;;;;20.58;11.80;;;6.60;99.90;;;;;;5056035;28;20037;-78
2023/03/23 05:15:58;;;;;;;27.10;11.55;;;6.60;99.90;;;;;;5055758;28;20078;-77
2023/03/23 05:18:25;;;;;;;59.38;17.48;;;6.70;99.90;;;;;;5054250;28;20029;-78
2023/03/23 05:20:53;;;;;;;62.97;17.48;;;6.80;99.90;;;;;;5055745;28;20052;-78
2023/03/23 05:23:20;;;;;;;36.25;13.95;;;6.80;99.90;;;;;;5055766;28;20045;-78
2023/03/23 05:25:57;;;;;;;33.15;13.45;;;6.80;99.90;;;;;;5054821;28;20459;-77
2023/03/23 05:28:22;;;;;;;33.40;12.43;;;6.80;99.90;;;;;;5053857;28;20403;-79
2023/03/23 05:30:49;;;;;;;25.75;12.40;;;6.80;99.90;;;;;;5056316;28;20021;-77
2023/03/23 05:33:14;;;;;;;32.70;15.63;;;6.80;99.90;;;;;;5056071;28;20090;-78
2023/03/23 05:35:41;;;;;;;30.13;14.60;;;6.90;99.90;;;;;;5054744;28;20499;-78
2023/03/23 05:38:07;;;;;;;29.95;14.80;;;6.90;99.90;;;;;;5055016;28;20051;-79
2023/03/23 05:40:32;;;;;;;21.33;12.90;;;7.00;99.90;;;;;;5055046;28;20115;-78
2023/03/23 05:42:58;;;;;;;31.67;15.18;;;7.00;99.90;;;;;;5055295;28;20106;-77
2023/03/23 05:45:26;;;;;;;32.42;17.70;;;7.10;99.90;;;;;;5055254;28;20033;-75
2023/03/23 05:47:52;;;;;;;37.00;13.68;;;7.20;99.90;;;;;;5055504;28;20048;-76
2023/03/23 05:50:18;;;;;;;51.38;19.92;;;7.40;99.90;;;;;;5055977;28;20029;-76
2023/03/23 05:52:44;;;;;;;50.20;18.17;;;7.40;99.90;;;;;;5055296;28;20036;-76
2023/03/23 05:55:11;;;;;;;52.00;24.45;;;7.50;99.90;;;;;;5055617;28;20108;-77
2023/03/23 05:57:37;;;;;;;51.00;23.05;;;7.60;99.90;;;;;;5054273;28;20029;-76
2023/03/23 06:00:11;;;;;;;51.47;25.27;;;7.70;99.90;;;;;;5055039;28;20071;-77
2023/03/23 06:02:37;;;;;;;57.08;25.75;;;7.80;99.90;;;;;;5055660;28;20025;-77
2023/03/23 06:05:03;;;;;;;68.25;27.92;;;7.90;99.90;;;;;;5055072;28;20025;-77
2023/03/23 06:07:29;;;;;;;65.32;28.95;;;8.00;99.90;;;;;;5054758;28;20041;-78
2023/03/23 06:09:55;;;;;;;50.90;22.95;;;8.10;99.90;;;;;;5054899;28;20025;-77
2023/03/23 06:12:21;;;;;;;70.15;30.63;;;8.20;99.90;;;;;;5055276;28;20060;-77
2023/03/23 06:14:48;;;;;;;69.00;32.13;;;8.40;99.90;;;;;;5054646;28;20075;-75
2023/03/23 06:17:17;;;;;;;78.78;32.30;;;8.60;99.90;;;;;;5054010;28;20024;-76
2023/03/23 06:19:43;;;;;;;83.60;36.28;;;8.60;99.90;;;;;;5053739;28;20116;-75
2023/03/23 06:22:10;;;;;;;61.08;28.83;;;8.80;99.90;;;;;;5053202;28;20151;-75
2023/03/23 06:24:36;;;;;;;60.20;29.02;;;9.00;99.90;;;;;;5055136;28;20029;-75
2023/03/23 06:27:01;;;;;;;66.35;29.17;;;9.10;99.90;;;;;;5055001;28;20072;-75
2023/03/23 06:29:28;;;;;;;66.32;30.55;;;9.20;99.90;;;;;;5054963;28;20025;-75
2023/03/23 06:32:00;;;;;;;63.60;27.30;;;9.40;99.90;;;;;;5053595;28;20032;-77
2023/03/23 06:34:25;;;;;;;;;;;9.50;99.90;;;;;;5054717;28;20033;-75
2023/03/23 06:36:52;;;;;;;47.05;22.33;;;9.80;99.90;;;;;;5054583;28;19928;-75
2023/03/23 06:39:18;;;;;;;49.17;24.08;;;9.90;99.90;;;;;;5054776;28;20482;-74
2023/03/23 06:41:43;;;;;;;46.50;22.48;;;10.10;99.90;;;;;;5054113;28;20029;-76
2023/03/23 06:44:12;;;;;;;57.35;24.88;;;10.20;99.90;;;;;;5053338;28;20043;-76
2023/03/23 06:46:40;;;;;;;53.58;24.50;;;10.40;99.90;;;;;;5054396;28;20555;-75
2023/03/23 06:49:05;;;;;;;45.58;21.45;;;10.60;99.90;;;;;;5053806;28;20025;-76
2023/03/23 06:51:31;;;;;;;48.83;23.33;;;10.80;99.90;;;;;;5053293;28;20352;-76
2023/03/23 06:53:57;;;;;;;47.53;23.75;;;11.00;99.90;;;;;;5054226;28;20083;-77
2023/03/23 06:56:24;;;;;;;45.75;21.33;;;11.10;99.90;;;;;;5054163;28;20025;-76
2023/03/23 06:58:49;;;;;;;39.60;20.20;;;11.30;99.90;;;;;;5054482;28;20455;-76
2023/03/23 07:01:15;;;;;;;35.00;17.50;;;11.40;99.90;;;;;;5054068;28;20086;-78
2023/03/23 07:03:42;;;;;;;42.67;20.20;;;11.60;99.90;;;;;;5054192;28;20070;-77
2023/03/23 07:06:08;;;;;;;36.67;17.13;;;11.70;99.90;;;;;;5053032;28;20029;-77
2023/03/23 07:08:35;;;;;;;45.75;19.90;;;11.80;99.90;;;;;;5053998;28;20025;-78
2023/03/23 07:11:01;;;;;;;42.55;19.48;;;12.00;99.90;;;;;;5054198;28;20025;-76
2023/03/23 07:13:27;;;;;;;45.72;19.52;;;12.20;99.90;;;;;;5052796;28;20563;-79
2023/03/23 07:15:53;;;;;;;39.63;18.13;;;12.30;99.90;;;;;;5053514;28;20036;-78
2023/03/23 07:18:19;;;;;;;37.55;16.55;;;12.40;99.90;;;;;;5054058;28;20049;-76
2023/03/23 07:20:49;;;;;;;38.30;16.98;;;12.60;99.90;;;;;;5052775;28;20460;-76
2023/03/23 07:23:16;;;;;;;42.88;19.88;;;12.60;99.90;;;;;;5052466;28;20072;-79
2023/03/23 07:25:43;;;;;;;52.08;20.27;;;12.80;99.30;;;;;;5053926;28;20033;-79
2023/03/23 07:28:09;;;;;;;41.08;17.63;;;13.10;99.20;;;;;;5052804;28;20033;-77
2023/03/23 07:30:34;;;;;;;33.30;16.90;;;13.20;96.00;;;;;;5054055;28;20167;-78
2023/03/23 07:33:07;;;;;;;39.15;19.63;;;13.30;95.80;;;;;;5052596;28;20039;-79
2023/03/23 07:35:33;;;;;;;46.28;21.15;;;13.50;93.90;;;;;;5053920;28;20089;-77
2023/03/23 07:38:00;;;;;;;49.53;23.60;;;13.60;92.80;;;;;;5052079;28;20025;-78
2023/03/23 07:40:26;;;;;;;43.13;19.45;;;13.80;91.80;;;;;;5053329;28;20032;-78
2023/03/23 07:42:57;;;;;;;43.10;20.08;;;14.10;92.80;;;;;;5052068;28;20021;-78
2023/03/23 07:45:23;;;;;;;64.45;29.92;;;14.20;90.10;;;;;;5053013;28;20025;-80
2023/03/23 07:47:49;;;;;;;41.65;18.83;;;14.40;89.80;;;;;;5053376;28;20033;-77
2023/03/23 07:50:16;;;;;;;47.45;21.30;;;14.60;85.90;;;;;;5052052;28;20028;-77
2023/03/23 07:52:42;;;;;;;33.00;17.55;;;15.00;83.90;;;;;;5052587;28;20075;-78
2023/03/23 07:55:17;;;;;;;32.60;17.13;;;15.20;82.30;;;;;;5053556;28;20043;-78
2023/03/23 07:57:46;;;;;;;33.13;17.25;;;15.30;79.50;;;;;;5052054;28;20025;-77
2023/03/23 08:00:25;;;;;;;38.13;19.70;;;15.70;77.00;;;;;;5051658;28;20057;-79
2023/03/23 08:02:55;;;;;;;;;;;15.80;75.40;;;;;;5052597;28;20091;-79
2023/03/23 08:05:21;;;;;;;55.05;26.27;;;16.00;74.30;;;;;;5051488;28;19909;-78
2023/03/23 08:08:21;;;;;;;42.38;20.77;;;16.40;75.70;;;;;;5051977;28;20083;-81
2023/03/23 08:10:54;;;;;;;39.38;19.48;;;16.40;71.50;;;;;;5052469;28;20025;-79
2023/03/23 08:13:20;;;;;;;74.93;33.65;;;16.50;69.20;;;;;;5052196;28;20083;-79
2023/03/23 08:15:46;;;;;;;50.40;23.73;;;16.90;73.90;;;;;;5052923;28;20024;-79
2023/03/23 08:18:11;;;;;;;47.55;25.25;;;16.90;68.80;;;;;;5052531;28;20029;-79
2023/03/23 08:20:37;;;;;;;42.97;21.30;;;17.30;68.60;;;;;;5052709;28;20371;-78
2023/03/23 08:23:03;;;;;;;43.55;21.45;;;17.50;68.10;;;;;;5053069;28;20084;-80
2023/03/23 08:25:33;;;;;;;45.58;21.40;;;17.60;66.90;;;;;;5051717;28;20063;-78
2023/03/23 08:28:01;;;;;;;45.03;21.73;;;17.80;66.90;;;;;;5052833;28;20036;-79
2023/03/23 08:30:29;;;;;;;50.72;20.95;;;18.00;66.40;;;;;;5050938;28;20126;-79
2023/03/23 08:33:00;;;;;;;102.93;50.58;;;18.00;68.40;;;;;;5052406;28;20471;-78
2023/03/23 08:35:26;;;;;;;47.35;21.27;;;18.30;65.40;;;;;;5054859;28;20074;-77
2023/03/23 08:37:52;;;;;;;48.30;24.30;;;18.50;63.40;;;;;;5052403;28;20371;-79
2023/03/23 08:40:21;;;;;;;35.55;18.48;;;18.80;62.70;;;;;;5054384;28;20029;-79
2023/03/23 08:42:49;;;;;;;24.58;11.98;;;18.70;65.00;;;;;;5056453;28;20155;-78
2023/03/23 08:45:20;;;;;;;28.83;11.63;;;19.10;58.00;;;;;;5053382;28;20029;-77
2023/03/23 08:47:50;;;;;;;;;;;19.50;58.40;;;;;;5056270;28;20025;-79
2023/03/23 08:50:17;;;;;;;34.38;14.80;;;19.70;56.30;;;;;;5056431;28;20282;-78
2023/03/23 08:52:43;;;;;;;31.25;13.57;;;19.90;56.40;;;;;;5056185;28;20026;-79
2023/03/23 08:55:09;;;;;;;32.58;14.93;;;19.80;55.80;;;;;;5055973;28;20036;-79
2023/03/23 08:57:36;;;;;;;29.98;15.57;;;20.10;53.70;;;;;;5055895;28;20036;-80
2023/03/23 09:00:15;;;;;;;34.38;15.10;;;20.00;54.30;;;;;;5054168;28;20029;-77
2023/03/23 09:02:42;;;;;;;28.65;12.98;;;20.30;52.10;;;;;;5054372;28;20078;-78
2023/03/23 09:05:10;;;;;;;29.08;12.27;;;20.70;54.50;;;;;;5055794;28;20025;-79
2023/03/23 09:07:41;;;;;;;31.52;13.73;;;20.80;53.00;;;;;;5054644;28;20033;-79
2023/03/23 09:10:08;;;;;;;23.05;13.50;;;20.60;51.70;;;;;;5056154;28;20032;-80
2023/03/23 09:12:35;;;;;;;23.90;11.02;;;20.90;53.90;;;;;;5056802;28;20031;-79
2023/03/23 09:15:05;;;;;;;19.40;9.57;;;20.70;51.10;;;;;;5054660;28;20035;-80
2023/03/23 09:17:31;;;;;;;16.95;9.85;;;20.90;50.80;;;;;;5055099;28;20025;-77
2023/03/23 09:19:56;;;;;;;15.30;8.95;;;21.00;52.00;;;;;;5056029;28;20021;-79
2023/03/23 09:22:23;;;;;;;13.93;7.97;;;21.20;52.60;;;;;;5055418;28;20449;-77
2023/03/23 09:24:51;;;;;;;17.02;8.38;;;21.50;48.40;;;;;;5056266;28;20029;-79
2023/03/23 09:27:17;;;;;;;14.85;7.07;;;21.70;46.40;;;;;;5056178;28;20086;-78
2023/03/23 09:29:44;;;;;;;13.85;7.32;;;21.50;46.40;;;;;;5055766;28;20361;-79
2023/03/23 09:32:13;;;;;;;16.55;7.13;;;22.10;46.80;;;;;;5054544;28;20356;-79
2023/03/23 09:34:39;;;;;;;24.30;8.30;;;22.10;47.60;;;;;;5054737;28;20356;-80
2023/03/23 09:37:05;;;;;;;11.43;6.57;;;22.20;48.40;;;;;;5055372;28;20460;-79
2023/03/23 09:39:31;;;;;;;17.00;7.53;;;22.00;45.70;;;;;;5055344;28;20032;-78
2023/03/23 09:42:00;;;;;;;15.30;7.82;;;22.10;47.70;;;;;;5053954;28;20032;-79
2023/03/23 09:44:38;;;;;;;10.88;5.53;;;22.10;45.20;;;;;;5054903;28;20039;-80
2023/03/23 09:47:07;;;;;;;9.48;6.13;;;22.40;45.30;;;;;;5054013;28;20032;-79
2023/03/23 09:49:51;;;;;;;9.73;5.72;;;22.40;44.50;;;;;;5053944;28;20025;-79
2023/03/23 09:52:19;;;;;;;10.52;5.85;;;22.50;44.30;;;;;;5053792;28;20029;-78
2023/03/23 09:54:51;;;;;;;15.60;7.75;;;22.70;42.20;;;;;;5054896;28;20491;-78
2023/03/23 09:57:26;;;;;;;11.20;6.88;;;;;;;;;;5054607;28;20025;-79
2023/03/23 10:00:01;;;;;;;9.63;4.80;;;;;;;;;;5055113;28;20062;-78
2023/03/23 10:02:39;;;;;;;20.90;9.40;;;;;;;;;;5054802;28;20032;-78
2023/03/23 10:05:29;;;;;;;8.27;4.63;;;;;;;;;;5053340;28;20036;-80
2023/03/23 10:07:55;;;;;;;12.27;4.97;;;;;;;;;;5051624;28;20037;-80
2023/03/23 10:10:25;;;;;;;9.40;4.25;;;;;;;;;;5054856;28;20025;-78
2023/03/23 10:13:03;;;;;;;10.43;4.93;;;;;;;;;;5053244;28;20062;-78
2023/03/23 10:15:34;;;;;;;10.90;5.80;;;;;;;;;;5054504;28;20048;-80
2023/03/23 10:18:17;;;;;;;4.47;2.40;;;;;;;;;;5053977;28;20052;-79
2023/03/23 10:20:58;;;;;;;6.40;2.88;;;;;;;;;;5054076;28;20056;-77
2023/03/23 10:23:43;;;;;;;7.75;4.70;;;;;;;;;;5054866;28;20045;-78
2023/03/23 10:26:10;;;;;;;5.32;2.85;;;;;;;;;;5052994;28;20337;-77
2023/03/23 10:28:36;;;;;;;4.35;2.65;;;;;;;;;;5054841;28;20021;-77
2023/03/23 10:31:03;;;;;;;14.75;5.38;;;;;;;;;;5054573;28;20018;-77
2023/03/23 10:33:39;;;;;;;4.57;2.75;;;;;;;;;;5054025;28;20016;-78
2023/03/23 10:36:11;;;;;;;6.80;3.10;;;;;;;;;;5054192;28;20104;-79
2023/03/23 10:38:39;;;;;;;3.90;2.10;;;;;;;;;;5054300;28;20475;-77
2023/03/23 10:41:25;;;;;;;4.95;2.40;;;;;;;;;;5052789;28;20028;-77
2023/03/23 10:43:54;;;;;;;3.08;1.83;;;;;;;;;;5052973;28;20021;-77
2023/03/23 10:46:32;;;;;;;5.00;2.67;;;;;;;;;;5052563;28;20025;-77
2023/03/23 10:49:00;;;;;;;4.25;2.75;;;;;;;;;;5054213;28;20023;-79
2023/03/23 10:51:35;;;;;;;4.53;2.63;;;;;;;;;;5052703;28;20021;-79
2023/03/23 10:54:02;;;;;;;4.70;2.05;;;;;;;;;;5054020;28;20024;-79
2023/03/23 10:56:34;;;;;;;4.22;2.03;;;;;;;;;;5052887;28;20021;-79
2023/03/23 10:59:11;;;;;;;6.78;2.63;;;;;;;;;;5054308;28;20013;-77
2023/03/23 11:01:37;;;;;;;4.22;2.70;;;;;;;;;;5054113;28;20025;-80
2023/03/23 11:04:04;;;;;;;8.23;3.22;;;;;;;;;;5054272;28;20021;-78
2023/03/23 11:06:33;;;;;;;8.80;4.47;;;;;;;;;;5054555;28;20040;-78
2023/03/23 11:09:03;;;;;;;3.50;2.13;;;;;;;;;;5053859;28;20017;-79
2023/03/23 11:11:37;;;;;;;4.75;2.45;;;;;;;;;;5054668;28;20051;-79
2023/03/23 11:14:13;;;;;;;5.40;3.35;;;;;;;;;;5053854;28;20021;-78
2023/03/23 11:16:44;;;;;;;5.22;2.80;;;;;;;;;;5054321;28;20017;-79
2023/03/23 11:19:14;;;;;;;3.30;2.40;;;;;;;;;;5054164;28;20090;-80
2023/03/23 11:21:46;;;;;;;5.13;2.80;;;;;;;;;;5053033;28;20129;-79
2023/03/23 11:24:15;;;;;;;3.67;2.30;;;;;;;;;;5052852;28;20029;-78
2023/03/23 11:26:43;;;;;;;5.38;3.00;;;;;;;;;;5053642;28;20048;-80
2023/03/23 11:29:15;;;;;;;4.03;2.30;;;;;;;;;;5052479;28;20043;-79
2023/03/23 11:31:50;;;;;;;4.20;2.20;;;;;;;;;;5052669;28;20087;-78
2023/03/23 11:34:16;;;;;;;3.75;2.33;;;;;;;;;;5052214;28;20537;-77
2023/03/23 11:37:09;;;;;;;8.07;3.88;;;;;;;;;;5052279;28;20028;-78
2023/03/23 11:39:46;;;;;;;4.90;2.90;;;;;;;;;;5052446;28;20040;-78
2023/03/23 11:42:13;;;;;;;9.07;3.88;;;;;;;;;;5053516;28;20017;-78
2023/03/23 11:44:47;;;;;;;4.57;2.80;;;;;;;;;;5052434;28;20025;-78
2023/03/23 11:47:21;;;;;;;17.15;7.40;;;;;;;;;;5053545;28;20097;-80
2023/03/23 11:49:57;;;;;;;5.47;3.53;;;;;;;;;;5053139;28;20545;-78
2023/03/23 11:52:23;;;;;;;3.45;2.28;;;;;;;;;;5053368;28;20026;-79
2023/03/23 11:54:57;;;;;;;7.95;3.70;;;;;;;;;;5053748;28;20070;-77
2023/03/23 11:57:24;;;;;;;7.20;3.22;;;;;;;;;;5053337;28;20083;-78
2023/03/23 11:59:51;;;;;;;5.70;2.60;;;;;;;;;;5052536;28;20021;-77
2023/03/23 12:02:27;;;;;;;5.60;2.90;;;;;;;;;;5053308;28;20071;-78
2023/03/23 12:05:12;;;;;;;5.35;2.65;;;;;;;;;;5053309;28;20017;-78
2023/03/23 12:07:48;;;;;;;3.83;2.20;;;;;;;;;;5052297;28;20033;-79
2023/03/23 12:10:24;;;;;;;6.53;2.53;;;;;;;;;;5057529;28;20024;-78
2023/03/23 12:12:50;;;;;;;9.80;4.68;;;;;;;;;;5056303;28;20109;-77
2023/03/23 12:15:26;;;;;;;7.97;3.38;;;;;;;;;;5057611;28;20029;-77
2023/03/23 12:18:05;;;;;;;5.75;3.25;;;;;;;;;;5057212;28;20017;-80
2023/03/23 12:20:58;;;;;;;7.43;4.15;;;;;;;;;;5057990;28;20070;-79
2023/03/23 12:23:47;;;;;;;8.90;4.30;;;;;;;;;;5055710;28;20068;-79
2023/03/23 12:26:18;;;;;;;7.40;3.92;;;;;;;;;;5053860;28;20056;-79
2023/03/23 12:29:02;;;;;;;5.65;2.75;;;;;;;;;;5056174;28;20091;-78
2023/03/23 12:31:28;;;;;;;4.32;2.25;;;;;;;;;;5055648;28;20021;-79
2023/03/23 12:33:55;;;;;;;4.47;2.30;;;;;;;;;;5055865;28;20490;-78
2023/03/23 12:36:27;;;;;;;3.63;2.15;;;;;;;;;;5054994;28;20422;-79
2023/03/23 12:39:04;;;;;;;3.72;1.98;;;;;;;;;;5055345;28;20040;-78
2023/03/23 12:41:38;;;;;;;4.93;2.80;;;;;;;;;;5057025;28;20143;-80
2023/03/23 12:44:10;;;;;;;6.40;3.10;;;;;;;;;;5055778;28;20083;-77
2023/03/23 12:46:52;;;;;;;7.38;3.45;;;;;;;;;;5055020;28;20117;-78
2023/03/23 12:49:21;;;;;;;4.53;2.67;;;;;;;;;;5055587;28;20502;-79
2023/03/23 12:51:52;;;;;;;5.40;2.40;;;;;;;;;;5055483;28;20029;-78
2023/03/23 12:54:18;;;;;;;3.60;2.20;;;;;;;;;;5055596;28;20025;-79
2023/03/23 12:56:50;;;;;;;7.10;3.63;;;;;;;;;;5056900;28;20020;-79
2023/03/23 12:59:16;;;;;;;4.72;3.08;;;;;;;;;;5056158;28;20017;-78
2023/03/23 13:01:47;;;;;;;5.45;2.28;;;;;;;;;;5061481;28;20009;-79
2023/03/23 13:04:19;;;;;;;4.85;2.17;;;;;;;;;;5062265;28;20036;-80
2023/03/23 13:06:46;;;;;;;4.05;2.20;;;;;;;;;;5055340;28;20498;-79
2023/03/23 13:09:32;;;;;;;4.85;2.08;;;;;;;;;;5075208;28;20097;-80
2023/03/23 13:11:59;;;;;;;4.20;2.35;;;;;;;;;;5076528;28;20482;-80
2023/03/23 13:14:38;;;;;;;5.75;2.28;;;;;;;;;;5074832;28;20028;-78
2023/03/23 13:17:27;;;;;;;4.88;2.30;;;;;;;;;;5074835;28;20028;-80